sensor_id;sensor_type;location;lat;lon;timestamp;P1;P2;P0
30342;PMS5003;17145;49.902;8.680;2024-02-26T00:00:51;1;1;
30342;PMS5003;17145;49.902;8.680;2024-02-26T00:03:18;1;1;
30342;PMS5003;17145;49.902;8.680;2024-02-26T00:05:46;1;1;
30342;PMS5003;17145;49.902;8.680;2024-02-26T00:08:13;2;2;
30342;PMS5003;17145;49.902;8.680;2024-02-26T00:10:41;1;1;
30342;PMS5003;17145;49.902;8.680;2024-02-26T00:13:08;1;1;
30342;PMS5003;17145;49.902;8.680;2024-02-26T00:15:35;1;0;
30342;PMS5003;17145;49.902;8.680;2024-02-26T00:18:03;3;2;
30342;PMS5003;17145;49.902;8.680;2024-02-26T00:20:30;1;1;
30342;PMS5003;17145;49.902;8.680;2024-02-26T00:22:58;2;2;
30342;PMS5003;17145;49.902;8.680;2024-02-26T00:25:26;1;1;
30342;PMS5003;17145;49.902;8.680;2024-02-26T00:27:53;1;1;
30342;PMS5003;17145;49.902;8.680;2024-02-26T00:30:21;2;2;
30342;PMS5003;17145;49.902;8.680;2024-02-26T00:32:49;2;2;
30342;PMS5003;17145;49.902;8.680;2024-02-26T00:35:17;2;2;
30342;PMS5003;17145;49.902;8.680;2024-02-26T00:37:44;2;1;
30342;PMS5003;17145;49.902;8.680;2024-02-26T00:40:11;2;2;
30342;PMS5003;17145;49.902;8.680;2024-02-26T00:42:39;1;1;
30342;PMS5003;17145;49.902;8.680;2024-02-26T00:45:07;3;2;
30342;PMS5003;17145;49.902;8.680;2024-02-26T00:47:35;1;1;
30342;PMS5003;17145;49.902;8.680;2024-02-26T00:50:02;2;2;
30342;PMS5003;17145;49.902;8.680;2024-02-26T00:52:30;1;1;
30342;PMS5003;17145;49.902;8.680;2024-02-26T00:54:57;1;1;
30342;PMS5003;17145;49.902;8.680;2024-02-26T00:57:25;1;1;
30342;PMS5003;17145;49.902;8.680;2024-02-26T00:59:52;2;1;
30342;PMS5003;17145;49.902;8.680;2024-02-26T01:02:19;3;3;
30342;PMS5003;17145;49.902;8.680;2024-02-26T01:04:47;3;2;
30342;PMS5003;17145;49.902;8.680;2024-02-26T01:07:14;2;2;
30342;PMS5003;17145;49.902;8.680;2024-02-26T01:09:42;1;1;
30342;PMS5003;17145;49.902;8.680;2024-02-26T01:12:09;4;3;
30342;PMS5003;17145;49.902;8.680;2024-02-26T01:14:37;2;1;
30342;PMS5003;17145;49.902;8.680;2024-02-26T01:17:04;2;2;
30342;PMS5003;17145;49.902;8.680;2024-02-26T01:19:31;2;2;
30342;PMS5003;17145;49.902;8.680;2024-02-26T01:21:59;3;2;
30342;PMS5003;17145;49.902;8.680;2024-02-26T01:24:26;3;2;
30342;PMS5003;17145;49.902;8.680;2024-02-26T01:26:54;1;1;
30342;PMS5003;17145;49.902;8.680;2024-02-26T01:29:21;2;2;
30342;PMS5003;17145;49.902;8.680;2024-02-26T01:31:49;2;1;
30342;PMS5003;17145;49.902;8.680;2024-02-26T01:34:16;2;2;
30342;PMS5003;17145;49.902;8.680;2024-02-26T01:36:43;2;2;
30342;PMS5003;17145;49.902;8.680;2024-02-26T01:39:11;2;2;
30342;PMS5003;17145;49.902;8.680;2024-02-26T01:41:39;1;1;
30342;PMS5003;17145;49.902;8.680;2024-02-26T01:44:07;3;3;
30342;PMS5003;17145;49.902;8.680;2024-02-26T01:46:34;3;2;
30342;PMS5003;17145;49.902;8.680;2024-02-26T01:49:02;3;2;
30342;PMS5003;17145;49.902;8.680;2024-02-26T01:51:30;4;3;
30342;PMS5003;17145;49.902;8.680;2024-02-26T01:54:00;2;2;
30342;PMS5003;17145;49.902;8.680;2024-02-26T01:56:30;2;2;
30342;PMS5003;17145;49.902;8.680;2024-02-26T01:58:59;2;2;
30342;PMS5003;17145;49.902;8.680;2024-02-26T02:01:27;6;6;
30342;PMS5003;17145;49.902;8.680;2024-02-26T02:03:56;2;1;
30342;PMS5003;17145;49.902;8.680;2024-02-26T02:06:25;3;2;
30342;PMS5003;17145;49.902;8.680;2024-02-26T02:08:54;1;1;
30342;PMS5003;17145;49.902;8.680;2024-02-26T02:11:22;2;2;
30342;PMS5003;17145;49.902;8.680;2024-02-26T02:13:49;3;2;
30342;PMS5003;17145;49.902;8.680;2024-02-26T02:16:17;2;2;
30342;PMS5003;17145;49.902;8.680;2024-02-26T02:18:44;3;2;
30342;PMS5003;17145;49.902;8.680;2024-02-26T02:21:11;1;1;
30342;PMS5003;17145;49.902;8.680;2024-02-26T02:23:39;8;3;
30342;PMS5003;17145;49.902;8.680;2024-02-26T02:26:06;1;1;
30342;PMS5003;17145;49.902;8.680;2024-02-26T02:28:33;1;1;
30342;PMS5003;17145;49.902;8.680;2024-02-26T02:31:01;3;2;
30342;PMS5003;17145;49.902;8.680;2024-02-26T02:33:28;1;1;
30342;PMS5003;17145;49.902;8.680;2024-02-26T02:35:56;2;2;
30342;PMS5003;17145;49.902;8.680;2024-02-26T02:38:23;2;2;
30342;PMS5003;17145;49.902;8.680;2024-02-26T02:40:51;2;2;
30342;PMS5003;17145;49.902;8.680;2024-02-26T02:43:18;1;1;
30342;PMS5003;17145;49.902;8.680;2024-02-26T02:45:45;3;2;
30342;PMS5003;17145;49.902;8.680;2024-02-26T02:48:13;2;2;
30342;PMS5003;17145;49.902;8.680;2024-02-26T02:50:40;3;3;
30342;PMS5003;17145;49.902;8.680;2024-02-26T02:53:07;2;2;
30342;PMS5003;17145;49.902;8.680;2024-02-26T02:55:35;1;1;
30342;PMS5003;17145;49.902;8.680;2024-02-26T02:58:02;2;2;
30342;PMS5003;17145;49.902;8.680;2024-02-26T03:00:30;1;1;
30342;PMS5003;17145;49.902;8.680;2024-02-26T03:02:57;2;2;
30342;PMS5003;17145;49.902;8.680;2024-02-26T03:05:25;3;2;
30342;PMS5003;17145;49.902;8.680;2024-02-26T03:07:52;2;2;
30342;PMS5003;17145;49.902;8.680;2024-02-26T03:10:19;3;2;
30342;PMS5003;17145;49.902;8.680;2024-02-26T03:12:47;1;1;
30342;PMS5003;17145;49.902;8.680;2024-02-26T03:15:14;1;1;
30342;PMS5003;17145;49.902;8.680;2024-02-26T03:17:42;3;2;
30342;PMS5003;17145;49.902;8.680;2024-02-26T03:20:09;2;2;
30342;PMS5003;17145;49.902;8.680;2024-02-26T03:22:39;2;2;
30342;PMS5003;17145;49.902;8.680;2024-02-26T03:25:07;2;2;
30342;PMS5003;17145;49.902;8.680;2024-02-26T03:27:34;2;1;
30342;PMS5003;17145;49.902;8.680;2024-02-26T03:30:02;2;2;
30342;PMS5003;17145;49.902;8.680;2024-02-26T03:32:30;1;1;
30342;PMS5003;17145;49.902;8.680;2024-02-26T03:34:57;3;2;
30342;PMS5003;17145;49.902;8.680;2024-02-26T03:37:24;10;10;
30342;PMS5003;17145;49.902;8.680;2024-02-26T03:39:52;1;1;
30342;PMS5003;17145;49.902;8.680;2024-02-26T03:42:19;4;4;
30342;PMS5003;17145;49.902;8.680;2024-02-26T03:44:46;6;6;
30342;PMS5003;17145;49.902;8.680;2024-02-26T03:47:15;2;2;
30342;PMS5003;17145;49.902;8.680;2024-02-26T03:49:43;4;4;
30342;PMS5003;17145;49.902;8.680;2024-02-26T03:52:10;1;1;
30342;PMS5003;17145;49.902;8.680;2024-02-26T03:54:38;3;3;
30342;PMS5003;17145;49.902;8.680;2024-02-26T03:57:05;4;4;
30342;PMS5003;17145;49.902;8.680;2024-02-26T03:59:34;5;2;
30342;PMS5003;17145;49.902;8.680;2024-02-26T04:02:01;3;3;
30342;PMS5003;17145;49.902;8.680;2024-02-26T04:04:28;2;2;
30342;PMS5003;17145;49.902;8.680;2024-02-26T04:06:55;2;2;
30342;PMS5003;17145;49.902;8.680;2024-02-26T04:09:23;2;2;
30342;PMS5003;17145;49.902;8.680;2024-02-26T04:11:50;3;3;
30342;PMS5003;17145;49.902;8.680;2024-02-26T04:14:18;2;2;
30342;PMS5003;17145;49.902;8.680;2024-02-26T04:16:45;4;4;
30342;PMS5003;17145;49.902;8.680;2024-02-26T04:19:12;2;2;
30342;PMS5003;17145;49.902;8.680;2024-02-26T04:21:40;4;3;
30342;PMS5003;17145;49.902;8.680;2024-02-26T04:24:08;2;2;
30342;PMS5003;17145;49.902;8.680;2024-02-26T04:26:35;2;1;
30342;PMS5003;17145;49.902;8.680;2024-02-26T04:29:04;2;1;
30342;PMS5003;17145;49.902;8.680;2024-02-26T04:31:31;4;4;
30342;PMS5003;17145;49.902;8.680;2024-02-26T04:33:59;4;3;
30342;PMS5003;17145;49.902;8.680;2024-02-26T04:36:26;2;2;
30342;PMS5003;17145;49.902;8.680;2024-02-26T04:38:53;1;1;
30342;PMS5003;17145;49.902;8.680;2024-02-26T04:41:21;2;1;
30342;PMS5003;17145;49.902;8.680;2024-02-26T04:43:48;1;1;
30342;PMS5003;17145;49.902;8.680;2024-02-26T04:46:16;1;1;
30342;PMS5003;17145;49.902;8.680;2024-02-26T04:48:43;3;1;
30342;PMS5003;17145;49.902;8.680;2024-02-26T04:51:10;1;1;
30342;PMS5003;17145;49.902;8.680;2024-02-26T04:53:38;2;2;
30342;PMS5003;17145;49.902;8.680;2024-02-26T04:56:05;1;1;
30342;PMS5003;17145;49.902;8.680;2024-02-26T04:58:33;2;2;
30342;PMS5003;17145;49.902;8.680;2024-02-26T05:01:01;5;4;
30342;PMS5003;17145;49.902;8.680;2024-02-26T05:03:28;5;5;
30342;PMS5003;17145;49.902;8.680;2024-02-26T05:05:55;3;3;
30342;PMS5003;17145;49.902;8.680;2024-02-26T05:08:23;4;3;
30342;PMS5003;17145;49.902;8.680;2024-02-26T05:10:50;2;2;
30342;PMS5003;17145;49.902;8.680;2024-02-26T05:13:18;2;2;
30342;PMS5003;17145;49.902;8.680;2024-02-26T05:15:45;2;2;
30342;PMS5003;17145;49.902;8.680;2024-02-26T05:18:12;2;2;
30342;PMS5003;17145;49.902;8.680;2024-02-26T05:20:40;3;2;
30342;PMS5003;17145;49.902;8.680;2024-02-26T05:23:07;2;2;
30342;PMS5003;17145;49.902;8.680;2024-02-26T05:25:34;2;2;
30342;PMS5003;17145;49.902;8.680;2024-02-26T05:28:02;3;3;
30342;PMS5003;17145;49.902;8.680;2024-02-26T05:30:29;3;3;
30342;PMS5003;17145;49.902;8.680;2024-02-26T05:32:57;4;3;
30342;PMS5003;17145;49.902;8.680;2024-02-26T05:35:24;2;2;
30342;PMS5003;17145;49.902;8.680;2024-02-26T05:37:53;2;2;
30342;PMS5003;17145;49.902;8.680;2024-02-26T05:40:20;2;2;
30342;PMS5003;17145;49.902;8.680;2024-02-26T05:42:48;3;2;
30342;PMS5003;17145;49.902;8.680;2024-02-26T05:45:15;2;2;
30342;PMS5003;17145;49.902;8.680;2024-02-26T05:47:43;2;2;
30342;PMS5003;17145;49.902;8.680;2024-02-26T05:50:10;2;1;
30342;PMS5003;17145;49.902;8.680;2024-02-26T05:52:38;3;2;
30342;PMS5003;17145;49.902;8.680;2024-02-26T05:55:07;1;1;
30342;PMS5003;17145;49.902;8.680;2024-02-26T05:57:35;3;2;
30342;PMS5003;17145;49.902;8.680;2024-02-26T06:00:03;2;2;
30342;PMS5003;17145;49.902;8.680;2024-02-26T06:02:31;2;2;
30342;PMS5003;17145;49.902;8.680;2024-02-26T06:04:59;2;1;
30342;PMS5003;17145;49.902;8.680;2024-02-26T06:07:26;2;1;
30342;PMS5003;17145;49.902;8.680;2024-02-26T06:09:54;2;2;
30342;PMS5003;17145;49.902;8.680;2024-02-26T06:12:21;3;2;
30342;PMS5003;17145;49.902;8.680;2024-02-26T06:14:49;2;2;
30342;PMS5003;17145;49.902;8.680;2024-02-26T06:17:16;2;2;
30342;PMS5003;17145;49.902;8.680;2024-02-26T06:19:44;3;3;
30342;PMS5003;17145;49.902;8.680;2024-02-26T06:22:11;4;3;
30342;PMS5003;17145;49.902;8.680;2024-02-26T06:24:38;3;2;
30342;PMS5003;17145;49.902;8.680;2024-02-26T06:27:06;2;2;
30342;PMS5003;17145;49.902;8.680;2024-02-26T06:29:34;3;3;
30342;PMS5003;17145;49.902;8.680;2024-02-26T06:32:01;3;3;
30342;PMS5003;17145;49.902;8.680;2024-02-26T06:34:29;5;1;
30342;PMS5003;17145;49.902;8.680;2024-02-26T06:36:57;2;2;
30342;PMS5003;17145;49.902;8.680;2024-02-26T06:39:24;2;2;
30342;PMS5003;17145;49.902;8.680;2024-02-26T06:41:52;3;3;
30342;PMS5003;17145;49.902;8.680;2024-02-26T06:44:19;3;3;
30342;PMS5003;17145;49.902;8.680;2024-02-26T06:46:46;5;5;
30342;PMS5003;17145;49.902;8.680;2024-02-26T06:49:14;3;3;
30342;PMS5003;17145;49.902;8.680;2024-02-26T06:51:41;3;3;
30342;PMS5003;17145;49.902;8.680;2024-02-26T06:54:08;5;2;
30342;PMS5003;17145;49.902;8.680;2024-02-26T06:56:36;3;3;
30342;PMS5003;17145;49.902;8.680;2024-02-26T06:59:03;5;5;
30342;PMS5003;17145;49.902;8.680;2024-02-26T07:01:30;3;3;
30342;PMS5003;17145;49.902;8.680;2024-02-26T07:03:58;2;2;
30342;PMS5003;17145;49.902;8.680;2024-02-26T07:06:25;2;2;
30342;PMS5003;17145;49.902;8.680;2024-02-26T07:08:54;5;5;
30342;PMS5003;17145;49.902;8.680;2024-02-26T07:11:21;6;3;
30342;PMS5003;17145;49.902;8.680;2024-02-26T07:13:48;3;3;
30342;PMS5003;17145;49.902;8.680;2024-02-26T07:16:16;3;3;
30342;PMS5003;17145;49.902;8.680;2024-02-26T07:18:43;5;2;
30342;PMS5003;17145;49.902;8.680;2024-02-26T07:21:11;3;2;
30342;PMS5003;17145;49.902;8.680;2024-02-26T07:23:40;5;3;
30342;PMS5003;17145;49.902;8.680;2024-02-26T07:26:07;3;3;
30342;PMS5003;17145;49.902;8.680;2024-02-26T07:28:35;5;5;
30342;PMS5003;17145;49.902;8.680;2024-02-26T07:31:02;2;2;
30342;PMS5003;17145;49.902;8.680;2024-02-26T07:33:30;5;5;
30342;PMS5003;17145;49.902;8.680;2024-02-26T07:35:57;5;5;
30342;PMS5003;17145;49.902;8.680;2024-02-26T07:38:25;3;3;
30342;PMS5003;17145;49.902;8.680;2024-02-26T07:40:52;3;3;
30342;PMS5003;17145;49.902;8.680;2024-02-26T07:43:20;3;3;
30342;PMS5003;17145;49.902;8.680;2024-02-26T07:45:47;3;3;
30342;PMS5003;17145;49.902;8.680;2024-02-26T07:48:14;3;3;
30342;PMS5003;17145;49.902;8.680;2024-02-26T07:50:42;5;3;
30342;PMS5003;17145;49.902;8.680;2024-02-26T07:53:09;6;5;
30342;PMS5003;17145;49.902;8.680;2024-02-26T07:55:37;2;2;
30342;PMS5003;17145;49.902;8.680;2024-02-26T07:58:04;7;7;
30342;PMS5003;17145;49.902;8.680;2024-02-26T08:00:32;2;2;
30342;PMS5003;17145;49.902;8.680;2024-02-26T08:02:59;3;3;
30342;PMS5003;17145;49.902;8.680;2024-02-26T08:05:27;3;3;
30342;PMS5003;17145;49.902;8.680;2024-02-26T08:07:54;3;3;
30342;PMS5003;17145;49.902;8.680;2024-02-26T08:10:21;5;3;
30342;PMS5003;17145;49.902;8.680;2024-02-26T08:12:49;3;3;
30342;PMS5003;17145;49.902;8.680;2024-02-26T08:15:16;3;3;
30342;PMS5003;17145;49.902;8.680;2024-02-26T08:17:44;6;3;
30342;PMS5003;17145;49.902;8.680;2024-02-26T08:20:11;5;5;
30342;PMS5003;17145;49.902;8.680;2024-02-26T08:22:39;6;3;
30342;PMS5003;17145;49.902;8.680;2024-02-26T08:25:07;5;5;
30342;PMS5003;17145;49.902;8.680;2024-02-26T08:27:36;3;3;
30342;PMS5003;17145;49.902;8.680;2024-02-26T08:30:03;5;3;
30342;PMS5003;17145;49.902;8.680;2024-02-26T08:32:31;2;2;
30342;PMS5003;17145;49.902;8.680;2024-02-26T08:34:59;3;3;
30342;PMS5003;17145;49.902;8.680;2024-02-26T08:37:26;6;5;
30342;PMS5003;17145;49.902;8.680;2024-02-26T08:39:53;5;5;
30342;PMS5003;17145;49.902;8.680;2024-02-26T08:42:21;5;3;
30342;PMS5003;17145;49.902;8.680;2024-02-26T08:44:48;2;2;
30342;PMS5003;17145;49.902;8.680;2024-02-26T08:47:16;5;5;
30342;PMS5003;17145;49.902;8.680;2024-02-26T08:49:44;3;3;
30342;PMS5003;17145;49.902;8.680;2024-02-26T08:52:12;5;3;
30342;PMS5003;17145;49.902;8.680;2024-02-26T08:54:39;3;3;
30342;PMS5003;17145;49.902;8.680;2024-02-26T08:57:07;10;5;
30342;PMS5003;17145;49.902;8.680;2024-02-26T08:59:34;6;6;
30342;PMS5003;17145;49.902;8.680;2024-02-26T09:02:02;3;3;
30342;PMS5003;17145;49.902;8.680;2024-02-26T09:04:29;3;3;
30342;PMS5003;17145;49.902;8.680;2024-02-26T09:06:57;3;2;
30342;PMS5003;17145;49.902;8.680;2024-02-26T09:09:24;5;5;
30342;PMS5003;17145;49.902;8.680;2024-02-26T09:11:51;3;3;
30342;PMS5003;17145;49.902;8.680;2024-02-26T09:14:19;3;2;
30342;PMS5003;17145;49.902;8.680;2024-02-26T09:16:46;3;2;
30342;PMS5003;17145;49.902;8.680;2024-02-26T09:19:14;3;3;
30342;PMS5003;17145;49.902;8.680;2024-02-26T09:21:42;3;3;
30342;PMS5003;17145;49.902;8.680;2024-02-26T09:24:10;3;3;
30342;PMS5003;17145;49.902;8.680;2024-02-26T09:26:38;3;3;
30342;PMS5003;17145;49.902;8.680;2024-02-26T09:29:05;5;3;
30342;PMS5003;17145;49.902;8.680;2024-02-26T09:31:32;3;2;
30342;PMS5003;17145;49.902;8.680;2024-02-26T09:34:00;6;5;
30342;PMS5003;17145;49.902;8.680;2024-02-26T09:36:27;5;5;
30342;PMS5003;17145;49.902;8.680;2024-02-26T09:38:56;5;3;
30342;PMS5003;17145;49.902;8.680;2024-02-26T09:41:23;5;3;
30342;PMS5003;17145;49.902;8.680;2024-02-26T09:43:55;3;3;
30342;PMS5003;17145;49.902;8.680;2024-02-26T09:46:23;2;2;
30342;PMS5003;17145;49.902;8.680;2024-02-26T09:48:52;5;5;
30342;PMS5003;17145;49.902;8.680;2024-02-26T09:51:20;2;2;
30342;PMS5003;17145;49.902;8.680;2024-02-26T09:53:51;5;3;
30342;PMS5003;17145;49.902;8.680;2024-02-26T09:56:19;3;3;
30342;PMS5003;17145;49.902;8.680;2024-02-26T09:58:47;5;5;
30342;PMS5003;17145;49.902;8.680;2024-02-26T10:01:17;3;3;
30342;PMS5003;17145;49.902;8.680;2024-02-26T10:03:47;5;3;
30342;PMS5003;17145;49.902;8.680;2024-02-26T10:06:21;3;2;
30342;PMS5003;17145;49.902;8.680;2024-02-26T10:08:48;5;5;
30342;PMS5003;17145;49.902;8.680;2024-02-26T10:11:16;5;2;
30342;PMS5003;17145;49.902;8.680;2024-02-26T10:13:44;5;3;
30342;PMS5003;17145;49.902;8.680;2024-02-26T10:16:13;5;3;
30342;PMS5003;17145;49.902;8.680;2024-02-26T10:18:46;3;3;
30342;PMS5003;17145;49.902;8.680;2024-02-26T10:21:15;5;5;
30342;PMS5003;17145;49.902;8.680;2024-02-26T10:23:43;2;2;
30342;PMS5003;17145;49.902;8.680;2024-02-26T10:26:11;3;3;
30342;PMS5003;17145;49.902;8.680;2024-02-26T10:28:41;5;3;
30342;PMS5003;17145;49.902;8.680;2024-02-26T10:31:09;2;2;
30342;PMS5003;17145;49.902;8.680;2024-02-26T10:33:37;5;5;
30342;PMS5003;17145;49.902;8.680;2024-02-26T10:36:06;2;2;
30342;PMS5003;17145;49.902;8.680;2024-02-26T10:38:35;5;5;
30342;PMS5003;17145;49.902;8.680;2024-02-26T10:41:03;2;2;
30342;PMS5003;17145;49.902;8.680;2024-02-26T10:43:31;5;5;
30342;PMS5003;17145;49.902;8.680;2024-02-26T10:45:58;2;2;
30342;PMS5003;17145;49.902;8.680;2024-02-26T10:48:26;5;5;
30342;PMS5003;17145;49.902;8.680;2024-02-26T10:50:54;6;5;
30342;PMS5003;17145;49.902;8.680;2024-02-26T10:53:21;5;5;
30342;PMS5003;17145;49.902;8.680;2024-02-26T10:55:52;5;5;
30342;PMS5003;17145;49.902;8.680;2024-02-26T10:58:21;5;5;
30342;PMS5003;17145;49.902;8.680;2024-02-26T11:00:49;6;6;
30342;PMS5003;17145;49.902;8.680;2024-02-26T11:03:18;3;3;
30342;PMS5003;17145;49.902;8.680;2024-02-26T11:05:46;3;3;
30342;PMS5003;17145;49.902;8.680;2024-02-26T11:08:15;3;3;
30342;PMS5003;17145;49.902;8.680;2024-02-26T11:10:45;5;5;
30342;PMS5003;17145;49.902;8.680;2024-02-26T11:13:14;3;2;
30342;PMS5003;17145;49.902;8.680;2024-02-26T11:15:44;5;3;
30342;PMS5003;17145;49.902;8.680;2024-02-26T11:18:14;3;3;
30342;PMS5003;17145;49.902;8.680;2024-02-26T11:20:43;5;5;
30342;PMS5003;17145;49.902;8.680;2024-02-26T11:23:11;3;2;
30342;PMS5003;17145;49.902;8.680;2024-02-26T11:25:39;3;2;
30342;PMS5003;17145;49.902;8.680;2024-02-26T11:28:08;5;5;
30342;PMS5003;17145;49.902;8.680;2024-02-26T11:30:39;5;5;
30342;PMS5003;17145;49.902;8.680;2024-02-26T11:33:10;3;3;
30342;PMS5003;17145;49.902;8.680;2024-02-26T11:35:38;2;2;
30342;PMS5003;17145;49.902;8.680;2024-02-26T11:38:06;3;2;
30342;PMS5003;17145;49.902;8.680;2024-02-26T11:40:37;3;3;
30342;PMS5003;17145;49.902;8.680;2024-02-26T11:43:05;3;3;
30342;PMS5003;17145;49.902;8.680;2024-02-26T11:48:16;3;2;
30342;PMS5003;17145;49.902;8.680;2024-02-26T11:50:48;3;3;
30342;PMS5003;17145;49.902;8.680;2024-02-26T11:53:20;3;3;
30342;PMS5003;17145;49.902;8.680;2024-02-26T11:58:31;2;2;
30342;PMS5003;17145;49.902;8.680;2024-02-26T12:00:59;3;3;
30342;PMS5003;17145;49.902;8.680;2024-02-26T12:03:26;2;2;
30342;PMS5003;17145;49.902;8.680;2024-02-26T12:05:53;3;3;
30342;PMS5003;17145;49.902;8.680;2024-02-26T12:08:21;5;3;
30342;PMS5003;17145;49.902;8.680;2024-02-26T12:10:48;3;2;
30342;PMS5003;17145;49.902;8.680;2024-02-26T12:13:17;5;3;
30342;PMS5003;17145;49.902;8.680;2024-02-26T12:15:55;7;7;
30342;PMS5003;17145;49.902;8.680;2024-02-26T12:18:22;7;6;
30342;PMS5003;17145;49.902;8.680;2024-02-26T12:23:26;7;7;
30342;PMS5003;17145;49.902;8.680;2024-02-26T12:25:53;7;7;
30342;PMS5003;17145;49.902;8.680;2024-02-26T12:28:27;6;6;
30342;PMS5003;17145;49.902;8.680;2024-02-26T12:30:54;9;7;
30342;PMS5003;17145;49.902;8.680;2024-02-26T12:33:22;6;5;
30342;PMS5003;17145;49.902;8.680;2024-02-26T12:35:49;10;9;
30342;PMS5003;17145;49.902;8.680;2024-02-26T12:38:17;7;7;
30342;PMS5003;17145;49.902;8.680;2024-02-26T12:40:44;7;7;
30342;PMS5003;17145;49.902;8.680;2024-02-26T12:43:12;9;7;
30342;PMS5003;17145;49.902;8.680;2024-02-26T12:45:39;10;7;
30342;PMS5003;17145;49.902;8.680;2024-02-26T12:48:07;7;6;
30342;PMS5003;17145;49.902;8.680;2024-02-26T12:50:36;6;6;
30342;PMS5003;17145;49.902;8.680;2024-02-26T12:53:03;9;7;
30342;PMS5003;17145;49.902;8.680;2024-02-26T12:55:32;9;7;
30342;PMS5003;17145;49.902;8.680;2024-02-26T12:58:00;10;7;
30342;PMS5003;17145;49.902;8.680;2024-02-26T13:00:28;9;7;
30342;PMS5003;17145;49.902;8.680;2024-02-26T13:02:56;7;6;
30342;PMS5003;17145;49.902;8.680;2024-02-26T13:05:25;9;7;
30342;PMS5003;17145;49.902;8.680;2024-02-26T13:07:53;7;7;
30342;PMS5003;17145;49.902;8.680;2024-02-26T13:10:20;9;7;
30342;PMS5003;17145;49.902;8.680;2024-02-26T13:12:48;6;6;
30342;PMS5003;17145;49.902;8.680;2024-02-26T13:15:16;7;6;
30342;PMS5003;17145;49.902;8.680;2024-02-26T13:17:45;6;6;
30342;PMS5003;17145;49.902;8.680;2024-02-26T13:20:13;7;7;
30342;PMS5003;17145;49.902;8.680;2024-02-26T13:22:51;6;6;
30342;PMS5003;17145;49.902;8.680;2024-02-26T13:25:27;5;5;
30342;PMS5003;17145;49.902;8.680;2024-02-26T13:30:35;9;6;
30342;PMS5003;17145;49.902;8.680;2024-02-26T13:33:08;6;6;
30342;PMS5003;17145;49.902;8.680;2024-02-26T13:35:37;9;6;
30342;PMS5003;17145;49.902;8.680;2024-02-26T13:38:05;7;7;
30342;PMS5003;17145;49.902;8.680;2024-02-26T13:40:32;7;6;
30342;PMS5003;17145;49.902;8.680;2024-02-26T13:43:00;7;6;
30342;PMS5003;17145;49.902;8.680;2024-02-26T13:45:27;6;5;
30342;PMS5003;17145;49.902;8.680;2024-02-26T13:47:56;7;6;
30342;PMS5003;17145;49.902;8.680;2024-02-26T13:50:29;6;5;
30342;PMS5003;17145;49.902;8.680;2024-02-26T13:52:56;6;6;
30342;PMS5003;17145;49.902;8.680;2024-02-26T13:55:25;7;6;
30342;PMS5003;17145;49.902;8.680;2024-02-26T13:57:52;3;3;
30342;PMS5003;17145;49.902;8.680;2024-02-26T14:00:20;5;5;
30342;PMS5003;17145;49.902;8.680;2024-02-26T14:02:47;6;6;
30342;PMS5003;17145;49.902;8.680;2024-02-26T14:05:15;6;5;
30342;PMS5003;17145;49.902;8.680;2024-02-26T14:07:42;7;6;
30342;PMS5003;17145;49.902;8.680;2024-02-26T14:10:11;6;6;
30342;PMS5003;17145;49.902;8.680;2024-02-26T14:12:39;6;6;
30342;PMS5003;17145;49.902;8.680;2024-02-26T14:15:07;5;5;
30342;PMS5003;17145;49.902;8.680;2024-02-26T14:17:36;6;5;
30342;PMS5003;17145;49.902;8.680;2024-02-26T14:20:04;7;7;
30342;PMS5003;17145;49.902;8.680;2024-02-26T14:22:33;9;7;
30342;PMS5003;17145;49.902;8.680;2024-02-26T14:25:00;5;5;
30342;PMS5003;17145;49.902;8.680;2024-02-26T14:27:27;5;5;
30342;PMS5003;17145;49.902;8.680;2024-02-26T14:29:55;6;5;
30342;PMS5003;17145;49.902;8.680;2024-02-26T14:32:22;5;5;
30342;PMS5003;17145;49.902;8.680;2024-02-26T14:34:49;5;5;
30342;PMS5003;17145;49.902;8.680;2024-02-26T14:37:17;9;7;
30342;PMS5003;17145;49.902;8.680;2024-02-26T14:39:44;5;5;
30342;PMS5003;17145;49.902;8.680;2024-02-26T14:42:12;6;6;
30342;PMS5003;17145;49.902;8.680;2024-02-26T14:44:39;5;5;
30342;PMS5003;17145;49.902;8.680;2024-02-26T14:47:07;7;6;
30342;PMS5003;17145;49.902;8.680;2024-02-26T14:49:34;5;5;
30342;PMS5003;17145;49.902;8.680;2024-02-26T14:52:01;5;5;
30342;PMS5003;17145;49.902;8.680;2024-02-26T14:54:29;6;6;
30342;PMS5003;17145;49.902;8.680;2024-02-26T14:56:56;6;6;
30342;PMS5003;17145;49.902;8.680;2024-02-26T14:59:24;6;6;
30342;PMS5003;17145;49.902;8.680;2024-02-26T15:01:51;5;5;
30342;PMS5003;17145;49.902;8.680;2024-02-26T15:04:18;6;5;
30342;PMS5003;17145;49.902;8.680;2024-02-26T15:06:46;3;3;
30342;PMS5003;17145;49.902;8.680;2024-02-26T15:09:13;6;5;
30342;PMS5003;17145;49.902;8.680;2024-02-26T15:11:40;10;5;
30342;PMS5003;17145;49.902;8.680;2024-02-26T15:14:08;7;5;
30342;PMS5003;17145;49.902;8.680;2024-02-26T15:16:36;3;3;
30342;PMS5003;17145;49.902;8.680;2024-02-26T15:19:04;6;5;
30342;PMS5003;17145;49.902;8.680;2024-02-26T15:21:31;7;5;
30342;PMS5003;17145;49.902;8.680;2024-02-26T15:23:58;6;5;
30342;PMS5003;17145;49.902;8.680;2024-02-26T15:26:26;6;6;
30342;PMS5003;17145;49.902;8.680;2024-02-26T15:28:53;5;5;
30342;PMS5003;17145;49.902;8.680;2024-02-26T15:31:21;7;6;
30342;PMS5003;17145;49.902;8.680;2024-02-26T15:33:48;6;6;
30342;PMS5003;17145;49.902;8.680;2024-02-26T15:36:15;5;5;
30342;PMS5003;17145;49.902;8.680;2024-02-26T15:38:43;6;6;
30342;PMS5003;17145;49.902;8.680;2024-02-26T15:41:10;6;5;
30342;PMS5003;17145;49.902;8.680;2024-02-26T15:43:38;7;6;
30342;PMS5003;17145;49.902;8.680;2024-02-26T15:46:05;6;6;
30342;PMS5003;17145;49.902;8.680;2024-02-26T15:48:33;5;5;
30342;PMS5003;17145;49.902;8.680;2024-02-26T15:51:02;6;5;
30342;PMS5003;17145;49.902;8.680;2024-02-26T15:53:30;5;5;
30342;PMS5003;17145;49.902;8.680;2024-02-26T15:55:57;6;6;
30342;PMS5003;17145;49.902;8.680;2024-02-26T15:58:25;7;6;
30342;PMS5003;17145;49.902;8.680;2024-02-26T16:00:52;6;6;
30342;PMS5003;17145;49.902;8.680;2024-02-26T16:03:19;6;6;
30342;PMS5003;17145;49.902;8.680;2024-02-26T16:05:47;7;6;
30342;PMS5003;17145;49.902;8.680;2024-02-26T16:08:16;5;5;
30342;PMS5003;17145;49.902;8.680;2024-02-26T16:10:45;5;5;
30342;PMS5003;17145;49.902;8.680;2024-02-26T16:13:13;6;6;
30342;PMS5003;17145;49.902;8.680;2024-02-26T16:15:42;5;5;
30342;PMS5003;17145;49.902;8.680;2024-02-26T16:18:14;6;5;
30342;PMS5003;17145;49.902;8.680;2024-02-26T16:20:42;5;3;
30342;PMS5003;17145;49.902;8.680;2024-02-26T16:23:12;5;5;
30342;PMS5003;17145;49.902;8.680;2024-02-26T16:25:40;7;5;
30342;PMS5003;17145;49.902;8.680;2024-02-26T16:28:07;5;5;
30342;PMS5003;17145;49.902;8.680;2024-02-26T16:30:34;3;3;
30342;PMS5003;17145;49.902;8.680;2024-02-26T16:33:02;5;5;
30342;PMS5003;17145;49.902;8.680;2024-02-26T16:35:30;3;3;
30342;PMS5003;17145;49.902;8.680;2024-02-26T16:37:58;6;6;
30342;PMS5003;17145;49.902;8.680;2024-02-26T16:40:25;3;3;
30342;PMS5003;17145;49.902;8.680;2024-02-26T16:42:52;7;7;
30342;PMS5003;17145;49.902;8.680;2024-02-26T16:45:20;2;2;
30342;PMS5003;17145;49.902;8.680;2024-02-26T16:47:47;5;5;
30342;PMS5003;17145;49.902;8.680;2024-02-26T16:50:15;5;3;
30342;PMS5003;17145;49.902;8.680;2024-02-26T16:52:42;3;3;
30342;PMS5003;17145;49.902;8.680;2024-02-26T16:55:10;3;3;
30342;PMS5003;17145;49.902;8.680;2024-02-26T16:57:37;3;3;
30342;PMS5003;17145;49.902;8.680;2024-02-26T17:00:05;5;5;
30342;PMS5003;17145;49.902;8.680;2024-02-26T17:02:34;3;3;
30342;PMS5003;17145;49.902;8.680;2024-02-26T17:05:01;5;5;